createdAt,value
2023-04-28T00:01:45.879Z,9.61
2023-04-28T00:04:12.966Z,9.59
2023-04-28T00:06:40.246Z,9.58
2023-04-28T00:09:11.176Z,9.54
2023-04-28T00:11:38.712Z,9.49
2023-04-28T00:14:06.038Z,9.44
2023-04-28T00:16:32.855Z,9.45
2023-04-28T00:18:59.636Z,9.45
2023-04-28T00:21:26.515Z,9.43
2023-04-28T00:23:53.622Z,9.40
2023-04-28T00:26:21.015Z,9.36
2023-04-28T00:28:48.026Z,9.32
2023-04-28T00:31:16.424Z,9.32
2023-04-28T00:33:44.922Z,9.26
2023-04-28T00:36:12.210Z,9.23
2023-04-28T00:38:39.082Z,9.22
2023-04-28T00:41:06.551Z,9.18
2023-04-28T00:43:43.607Z,9.14
2023-04-28T00:46:11.083Z,9.13
2023-04-28T00:48:39.415Z,9.12
2023-04-28T00:51:06.864Z,9.15
2023-04-28T00:53:34.151Z,9.13
2023-04-28T00:56:01.252Z,9.12
2023-04-28T00:58:29.616Z,9.08
2023-04-28T01:01:07.310Z,9.02
2023-04-28T01:03:39.786Z,8.96
2023-04-28T01:06:08.721Z,8.92
2023-04-28T01:08:37.934Z,8.85
2023-04-28T01:11:07.377Z,8.76
2023-04-28T01:13:54.695Z,8.73
2023-04-28T01:16:22.726Z,8.69
2023-04-28T01:18:50.181Z,8.62
2023-04-28T01:21:32.904Z,8.54
2023-04-28T01:24:07.175Z,8.54
2023-04-28T01:26:34.116Z,8.48
2023-04-28T01:29:01.736Z,8.40
2023-04-28T01:31:31.182Z,8.36
2023-04-28T01:33:58.448Z,8.32
2023-04-28T01:36:27.402Z,8.28
2023-04-28T01:38:55.040Z,8.28
2023-04-28T01:41:22.567Z,8.24
2023-04-28T01:43:49.483Z,8.17
2023-04-28T01:46:16.631Z,8.12
2023-04-28T01:48:43.419Z,8.07
2023-04-28T01:51:11.425Z,8.06
2023-04-28T01:53:38.927Z,8.04
2023-04-28T01:56:05.988Z,7.95
2023-04-28T01:58:34.597Z,7.91
2023-04-28T02:01:01.422Z,7.88
2023-04-28T02:03:28.790Z,7.86
2023-04-28T02:05:56.660Z,7.84
2023-04-28T02:08:23.524Z,7.83
2023-04-28T02:10:52.312Z,7.81
2023-04-28T02:13:22.286Z,7.76
2023-04-28T02:15:49.183Z,7.73
2023-04-28T02:18:16.306Z,7.67
2023-04-28T02:20:43.214Z,7.67
2023-04-28T02:23:10.318Z,7.66
2023-04-28T02:25:37.177Z,7.61
2023-04-28T02:28:04.236Z,7.65
2023-04-28T02:30:34.700Z,7.69
2023-04-28T02:33:01.622Z,7.69
2023-04-28T02:35:28.664Z,7.71
2023-04-28T02:37:55.574Z,7.66
2023-04-28T02:40:22.489Z,7.64
2023-04-28T02:42:49.288Z,7.59
2023-04-28T02:45:16.348Z,7.54
2023-04-28T02:47:43.365Z,7.51
2023-04-28T02:50:10.929Z,7.48
2023-04-28T02:52:38.260Z,7.50
2023-04-28T02:55:05.848Z,7.46
2023-04-28T02:57:33.027Z,7.48
2023-04-28T03:00:00.749Z,7.45
2023-04-28T03:02:33.139Z,7.47
2023-04-28T03:05:00.156Z,7.46
2023-04-28T03:07:28.263Z,7.43
2023-04-28T03:09:55.067Z,7.45
2023-04-28T03:12:21.929Z,7.45
2023-04-28T03:14:48.841Z,7.44
2023-04-28T03:17:17.637Z,7.45
2023-04-28T03:19:44.483Z,7.49
2023-04-28T03:22:11.748Z,7.51
2023-04-28T03:24:38.648Z,7.55
2023-04-28T03:27:05.987Z,7.53
2023-04-28T03:29:33.055Z,7.56
2023-04-28T03:32:00.239Z,7.57
2023-04-28T03:34:28.049Z,7.59
2023-04-28T03:36:55.409Z,7.60
2023-04-28T03:39:27.776Z,7.64
2023-04-28T03:41:54.723Z,7.74
2023-04-28T03:44:36.576Z,7.74
2023-04-28T03:47:04.318Z,7.71
2023-04-28T03:49:31.249Z,7.72
2023-04-28T03:51:58.243Z,7.70
2023-04-28T03:54:26.126Z,7.79
2023-04-28T03:56:53.245Z,7.89
2023-04-28T03:59:20.069Z,7.91
2023-04-28T04:01:47.061Z,7.93
2023-04-28T04:04:14.033Z,7.95
2023-04-28T04:06:41.198Z,8.10
2023-04-28T04:09:10.162Z,8.14
2023-04-28T04:11:38.287Z,8.17
2023-04-28T04:14:06.318Z,8.22
2023-04-28T04:16:33.436Z,8.24
2023-04-28T04:19:00.457Z,8.37
2023-04-28T04:21:33.168Z,8.29
2023-04-28T04:24:01.503Z,8.29
2023-04-28T04:26:28.938Z,8.43
2023-04-28T04:28:56.297Z,8.54
2023-04-28T04:31:24.687Z,8.60
2023-04-28T04:33:52.031Z,8.55
2023-04-28T04:36:20.931Z,8.67
2023-04-28T04:38:47.883Z,8.66
2023-04-28T04:41:22.828Z,8.66
2023-04-28T04:43:55.907Z,8.56
2023-04-28T04:46:28.652Z,8.58
2023-04-28T04:48:55.742Z,8.77
2023-04-28T04:51:23.723Z,9.02
2023-04-28T04:53:50.579Z,8.86
2023-04-28T04:56:17.607Z,9.01
2023-04-28T04:58:47.059Z,9.14
2023-04-28T05:01:36.696Z,9.02
2023-04-28T05:04:03.841Z,9.08
2023-04-28T05:06:31.837Z,8.94
2023-04-28T05:08:59.378Z,8.89
2023-04-28T05:11:26.950Z,8.75
2023-04-28T05:13:53.789Z,8.67
2023-04-28T05:16:21.160Z,8.60
2023-04-28T05:18:48.480Z,8.72
2023-04-28T05:21:15.988Z,8.84
2023-04-28T05:23:43.190Z,9.08
2023-04-28T05:26:10.734Z,8.97
2023-04-28T05:28:37.580Z,8.92
2023-04-28T05:31:04.569Z,9.20
2023-04-28T05:33:32.728Z,9.29
2023-04-28T05:35:59.663Z,9.45
2023-04-28T05:38:26.898Z,9.58
2023-04-28T05:40:55.496Z,9.41
2023-04-28T05:43:22.468Z,9.16
2023-04-28T05:45:52.589Z,9.32
2023-04-28T05:48:20.241Z,9.54
2023-04-28T05:50:47.330Z,9.67
2023-04-28T05:53:15.720Z,9.63
2023-04-28T05:55:42.900Z,9.87
2023-04-28T05:58:10.374Z,9.90
2023-04-28T06:00:38.086Z,9.92
2023-04-28T06:03:07.113Z,9.78
2023-04-28T06:05:34.384Z,9.88
2023-04-28T06:08:01.655Z,9.90
2023-04-28T06:10:28.550Z,9.97
2023-04-28T06:12:57.988Z,9.99
2023-04-28T06:15:24.927Z,10.16
2023-04-28T06:17:51.985Z,9.95
2023-04-28T06:20:19.119Z,10.07
2023-04-28T06:22:46.159Z,10.04
2023-04-28T06:25:12.988Z,9.86
2023-04-28T06:27:45.141Z,10.00
2023-04-28T06:30:18.331Z,10.17
2023-04-28T06:32:45.085Z,9.88
2023-04-28T06:35:14.440Z,10.47
2023-04-28T06:37:42.508Z,10.56
2023-04-28T06:40:10.134Z,10.89
2023-04-28T06:42:40.656Z,11.15
2023-04-28T06:45:11.974Z,11.23
2023-04-28T06:47:40.789Z,11.40
2023-04-28T06:50:09.872Z,11.88
2023-04-28T06:52:39.754Z,11.69
2023-04-28T06:55:10.767Z,11.97
2023-04-28T06:57:38.342Z,12.93
2023-04-28T07:00:06.765Z,13.43
2023-04-28T07:02:35.228Z,14.19
2023-04-28T07:05:05.445Z,14.15
2023-04-28T07:07:33.244Z,14.04
2023-04-28T07:10:01.062Z,13.56
2023-04-28T07:12:31.182Z,13.39
2023-04-28T07:14:58.359Z,12.97
2023-04-28T07:17:25.327Z,12.82
2023-04-28T07:19:52.363Z,12.55
2023-04-28T07:22:19.677Z,12.57
2023-04-28T07:24:46.541Z,12.75
2023-04-28T07:27:14.493Z,12.96
2023-04-28T07:29:41.394Z,12.78
2023-04-28T07:32:10.716Z,12.37
2023-04-28T07:34:38.264Z,12.27
2023-04-28T07:37:05.727Z,12.34
2023-04-28T07:39:34.963Z,12.51
2023-04-28T07:42:03.494Z,12.80
2023-04-28T07:44:31.709Z,12.57
2023-04-28T07:47:01.997Z,12.76
2023-04-28T07:49:32.208Z,12.99
2023-04-28T07:51:59.259Z,13.13
2023-04-28T07:54:27.448Z,13.23
2023-04-28T07:56:58.168Z,13.41
2023-04-28T07:59:26.837Z,13.78
2023-04-28T08:01:54.994Z,14.06
2023-04-28T08:04:22.211Z,14.27
2023-04-28T08:06:49.908Z,14.30
2023-04-28T08:09:16.879Z,14.34
2023-04-28T08:11:43.710Z,14.82
2023-04-28T08:14:10.562Z,15.39
2023-04-28T08:16:40.465Z,15.49
2023-04-28T08:19:07.696Z,16.11
2023-04-28T08:21:37.520Z,16.76
2023-04-28T08:24:04.706Z,17.28
2023-04-28T08:26:32.318Z,17.74
2023-04-28T08:28:59.271Z,18.02
2023-04-28T08:31:26.308Z,17.97
2023-04-28T08:33:54.417Z,17.73
2023-04-28T08:36:23.673Z,17.38
2023-04-28T08:38:50.480Z,16.47
2023-04-28T08:41:18.172Z,16.15
2023-04-28T08:43:45.708Z,16.12
2023-04-28T08:46:14.814Z,16.15
2023-04-28T08:48:45.287Z,16.10
2023-04-28T08:51:17.248Z,16.00
2023-04-28T08:54:14.990Z,16.17
2023-04-28T08:56:39.493Z,16.38
2023-04-28T08:59:06.752Z,16.78
2023-04-28T09:01:33.796Z,17.16
2023-04-28T09:04:06.825Z,17.39
2023-04-28T09:06:36.322Z,17.92
2023-04-28T09:09:23.644Z,18.16
2023-04-28T09:12:04.939Z,17.99
2023-04-28T09:14:36.934Z,18.08
2023-04-28T09:17:14.382Z,18.00
2023-04-28T09:19:45.911Z,17.92
2023-04-28T09:24:47.367Z,17.80
2023-04-28T09:27:15.546Z,17.84
2023-04-28T09:29:53.573Z,17.79
2023-04-28T09:32:24.831Z,17.83
2023-04-28T09:34:53.971Z,17.91
2023-04-28T09:37:23.413Z,18.04
2023-04-28T09:39:52.004Z,18.11
2023-04-28T09:42:40.918Z,17.83
2023-04-28T09:45:10.159Z,17.79
2023-04-28T09:47:40.884Z,17.89
2023-04-28T09:50:14.606Z,17.94
2023-04-28T09:52:57.946Z,17.66
2023-04-28T09:55:25.467Z,17.42
2023-04-28T09:57:55.871Z,17.11
2023-04-28T10:00:23.956Z,16.90
2023-04-28T10:02:52.321Z,16.86
2023-04-28T10:05:22.006Z,16.86
2023-04-28T10:07:49.600Z,16.84
2023-04-28T10:10:17.118Z,16.71
2023-04-28T10:12:44.949Z,16.71
2023-04-28T10:15:13.288Z,16.64
2023-04-28T10:17:40.734Z,16.52
2023-04-28T10:20:09.421Z,16.44
2023-04-28T10:23:13.806Z,16.31
2023-04-28T10:25:42.566Z,16.40
2023-04-28T10:28:10.763Z,16.49
2023-04-28T10:30:38.166Z,16.58
2023-04-28T10:33:14.426Z,16.64
2023-04-28T10:35:44.507Z,16.75
2023-04-28T10:38:22.971Z,16.87
2023-04-28T10:40:51.617Z,16.97
2023-04-28T10:43:33.281Z,16.91
2023-04-28T10:46:05.050Z,17.02
2023-04-28T10:48:35.086Z,17.11
2023-04-28T10:51:08.075Z,17.15
2023-04-28T10:53:45.766Z,17.18
2023-04-28T10:56:21.442Z,17.30
2023-04-28T10:58:50.700Z,17.46
2023-04-28T11:01:34.600Z,17.44
2023-04-28T11:04:13.220Z,17.51
2023-04-28T11:06:45.906Z,17.63
2023-04-28T11:09:15.719Z,17.60
2023-04-28T11:12:01.270Z,17.40
2023-04-28T11:14:43.278Z,17.47
2023-04-28T11:17:17.462Z,17.63
2023-04-28T11:19:45.400Z,17.54
2023-04-28T11:22:17.522Z,17.82
2023-04-28T11:25:02.721Z,17.90
2023-04-28T11:27:34.589Z,18.06
2023-04-28T11:30:02.164Z,18.23
2023-04-28T11:32:35.350Z,18.39
2023-04-28T11:35:04.837Z,18.61
2023-04-28T11:37:33.502Z,18.64
2023-04-28T11:40:11.411Z,18.54
2023-04-28T11:42:46.762Z,18.58
2023-04-28T11:45:13.839Z,18.39
2023-04-28T11:47:40.951Z,18.30
2023-04-28T11:50:08.349Z,18.22
2023-04-28T11:52:35.382Z,18.14
2023-04-28T11:55:02.560Z,18.11
2023-04-28T11:57:30.857Z,18.16
2023-04-28T12:00:22.208Z,18.13
2023-04-28T12:02:49.805Z,18.19
2023-04-28T12:05:17.220Z,18.26
2023-04-28T12:07:45.724Z,18.44
2023-04-28T12:10:14.423Z,18.66
2023-04-28T12:12:51.069Z,18.81
2023-04-28T12:15:20.667Z,19.01
2023-04-28T12:17:48.728Z,19.07
2023-04-28T12:20:38.588Z,19.04
2023-04-28T12:23:11.051Z,19.35
2023-04-28T12:25:45.441Z,19.56
2023-04-28T12:28:12.620Z,19.65
2023-04-28T12:30:42.253Z,19.79
2023-04-28T12:33:27.055Z,19.59
2023-04-28T12:35:56.017Z,19.52
2023-04-28T12:38:23.949Z,19.49
2023-04-28T12:40:55.625Z,19.55
2023-04-28T12:43:28.961Z,19.50
2023-04-28T12:45:56.966Z,19.49
2023-04-28T12:48:25.260Z,19.56
2023-04-28T12:50:52.562Z,19.59
2023-04-28T12:53:19.595Z,19.53
2023-04-28T12:55:46.624Z,19.48
2023-04-28T12:58:22.509Z,19.52
2023-04-28T13:00:51.812Z,19.61
2023-04-28T13:03:19.994Z,19.63
2023-04-28T13:05:49.619Z,19.65
2023-04-28T13:08:16.455Z,19.65
2023-04-28T13:10:43.604Z,19.57
2023-04-28T13:13:12.645Z,19.47
2023-04-28T13:15:39.536Z,19.43
2023-04-28T13:18:06.566Z,19.35
2023-04-28T13:20:33.453Z,19.23
2023-04-28T13:23:07.581Z,19.10
2023-04-28T13:25:34.736Z,18.90
2023-04-28T13:28:08.371Z,18.81
2023-04-28T13:30:35.606Z,18.82
2023-04-28T13:33:02.618Z,18.78
2023-04-28T13:35:29.545Z,18.76
2023-04-28T13:38:01.852Z,18.78
2023-04-28T13:40:29.783Z,18.75
2023-04-28T13:42:56.750Z,18.76
2023-04-28T13:45:23.544Z,18.60
2023-04-28T13:47:51.201Z,18.58
2023-04-28T13:50:18.202Z,18.46
2023-04-28T13:52:45.069Z,18.41
2023-04-28T13:55:12.252Z,18.38
2023-04-28T13:57:39.062Z,18.36
2023-04-28T14:00:06.633Z,18.30
2023-04-28T14:02:35.100Z,18.31
2023-04-28T14:05:03.075Z,18.33
2023-04-28T14:07:31.059Z,18.33
2023-04-28T14:09:57.951Z,18.37
2023-04-28T14:12:25.360Z,18.36
2023-04-28T14:14:52.204Z,18.36
2023-04-28T14:17:19.061Z,18.34
2023-04-28T14:19:46.420Z,18.33
2023-04-28T14:22:13.530Z,18.33
2023-04-28T14:24:42.153Z,18.31
2023-04-28T14:27:09.664Z,18.28
2023-04-28T14:29:36.443Z,18.21
2023-04-28T14:32:03.398Z,18.20
2023-04-28T14:34:30.349Z,18.25
2023-04-28T14:36:57.299Z,18.30
2023-04-28T14:39:24.496Z,18.25
2023-04-28T14:41:51.448Z,18.25
2023-04-28T14:44:18.268Z,18.24
2023-04-28T14:46:45.206Z,18.23
2023-04-28T14:49:12.226Z,18.18
2023-04-28T14:51:39.076Z,18.17
2023-04-28T14:54:06.003Z,18.17
2023-04-28T14:56:33.956Z,18.20
2023-04-28T14:59:01.084Z,18.26
2023-04-28T15:01:28.188Z,18.33
2023-04-28T15:03:55.646Z,18.35
2023-04-28T15:06:22.858Z,18.36
2023-04-28T15:08:49.753Z,18.35
2023-04-28T15:11:17.578Z,18.30
2023-04-28T15:13:44.397Z,18.32
2023-04-28T15:16:11.397Z,18.31
2023-04-28T15:18:39.619Z,18.21
2023-04-28T15:21:07.009Z,18.16
2023-04-28T15:23:35.168Z,18.13
2023-04-28T15:26:02.591Z,18.08
2023-04-28T15:28:29.548Z,18.03
2023-04-28T15:30:56.990Z,18.00
2023-04-28T15:33:25.016Z,17.97
2023-04-28T15:35:52.531Z,17.89
2023-04-28T15:38:19.383Z,17.90
2023-04-28T15:40:46.877Z,17.86
2023-04-28T15:43:13.836Z,17.88
2023-04-28T15:45:41.027Z,17.88
2023-04-28T15:48:09.237Z,17.83
2023-04-28T15:50:37.616Z,17.76
2023-04-28T15:53:04.541Z,17.72
2023-04-28T15:55:31.485Z,17.75
2023-04-28T15:57:59.379Z,17.81
2023-04-28T16:00:26.454Z,17.89
2023-04-28T16:02:53.374Z,17.98
2023-04-28T16:05:20.490Z,18.07
2023-04-28T16:07:47.610Z,18.10
2023-04-28T16:10:16.608Z,18.10
2023-04-28T16:12:44.005Z,18.20
2023-04-28T16:15:13.097Z,18.14
2023-04-28T16:17:41.537Z,18.14
2023-04-28T16:20:10.240Z,18.06
2023-04-28T16:22:38.769Z,17.99
2023-04-28T16:25:06.557Z,17.90
2023-04-28T16:27:35.643Z,17.89
2023-04-28T16:30:03.534Z,17.85
2023-04-28T16:32:36.330Z,17.76
2023-04-28T16:35:06.368Z,17.70
2023-04-28T16:37:33.729Z,17.65
2023-04-28T16:40:00.706Z,17.61
2023-04-28T16:42:27.689Z,17.60
2023-04-28T16:44:55.072Z,17.59
2023-04-28T16:47:22.250Z,17.56
2023-04-28T16:49:49.285Z,17.52
2023-04-28T16:52:16.748Z,17.51
2023-04-28T16:54:43.624Z,17.46
2023-04-28T16:57:10.792Z,17.39
2023-04-28T16:59:46.624Z,17.40
2023-04-28T17:02:13.519Z,17.36
2023-04-28T17:04:40.690Z,17.36
2023-04-28T17:07:07.828Z,17.33
2023-04-28T17:09:34.748Z,17.31
2023-04-28T17:12:03.889Z,17.28
2023-04-28T17:14:31.175Z,17.26
2023-04-28T17:16:58.157Z,17.27
2023-04-28T17:19:25.064Z,17.27
2023-04-28T17:21:52.885Z,17.27
2023-04-28T17:24:19.788Z,17.26
2023-04-28T17:26:47.129Z,17.22
2023-04-28T17:29:14.261Z,17.18
2023-04-28T17:31:43.448Z,17.17
2023-04-28T17:34:10.551Z,17.15
2023-04-28T17:36:38.141Z,17.11
2023-04-28T17:39:07.677Z,17.10
2023-04-28T17:41:34.606Z,17.03
2023-04-28T17:44:01.734Z,16.97
2023-04-28T17:46:28.902Z,16.88
2023-04-28T17:48:56.081Z,16.77
2023-04-28T17:51:23.108Z,16.73
2023-04-28T17:53:50.062Z,16.66
2023-04-28T17:56:17.089Z,16.60
2023-04-28T17:58:43.965Z,16.54
2023-04-28T18:01:10.894Z,16.46
2023-04-28T18:03:39.297Z,16.43
2023-04-28T18:06:08.436Z,16.33
2023-04-28T18:08:36.883Z,16.18
2023-04-28T18:11:04.880Z,16.12
2023-04-28T18:13:32.795Z,16.05
2023-04-28T18:16:00.082Z,15.96
2023-04-28T18:18:30.046Z,15.78
2023-04-28T18:20:59.225Z,15.69
2023-04-28T18:23:27.271Z,15.61
2023-04-28T18:25:54.106Z,15.58
2023-04-28T18:28:21.246Z,15.52
2023-04-28T18:30:48.169Z,15.35
2023-04-28T18:33:15.059Z,15.23
2023-04-28T18:35:41.912Z,15.11
2023-04-28T18:38:08.869Z,15.01
2023-04-28T18:40:40.814Z,14.94
2023-04-28T18:43:10.475Z,14.84
2023-04-28T18:45:41.192Z,14.80
2023-04-28T18:48:09.713Z,14.77
2023-04-28T18:50:36.979Z,14.71
2023-04-28T18:53:05.079Z,14.63
2023-04-28T18:55:36.927Z,14.54
2023-04-28T18:58:06.730Z,14.19
2023-04-28T19:00:36.878Z,14.41
2023-04-28T19:03:04.823Z,14.42
2023-04-28T19:05:31.980Z,14.42
2023-04-28T19:07:58.812Z,14.42
2023-04-28T19:10:25.868Z,14.41
2023-04-28T19:12:52.850Z,14.46
2023-04-28T19:15:19.773Z,14.34
2023-04-28T19:17:46.682Z,14.20
2023-04-28T19:20:13.807Z,14.13
2023-04-28T19:22:41.801Z,14.05
2023-04-28T19:25:08.991Z,13.99
2023-04-28T19:27:37.754Z,14.01
2023-04-28T19:30:07.389Z,13.91
2023-04-28T19:32:36.822Z,13.86
2023-04-28T19:35:04.800Z,13.91
2023-04-28T19:37:37.107Z,13.85
2023-04-28T19:40:59.511Z,13.87
2023-04-28T19:44:03.492Z,13.79
2023-04-28T19:46:30.558Z,13.78
2023-04-28T19:49:00.642Z,13.73
2023-04-28T19:51:27.908Z,13.66
2023-04-28T19:53:59.742Z,13.69
2023-04-28T19:56:27.290Z,13.64
2023-04-28T19:58:54.205Z,13.67
2023-04-28T20:01:21.233Z,13.76
2023-04-28T20:03:49.387Z,13.69
2023-04-28T20:06:17.700Z,13.69
2023-04-28T20:08:45.775Z,13.75
2023-04-28T20:11:12.819Z,13.70
2023-04-28T20:13:39.724Z,13.69
2023-04-28T20:16:07.328Z,13.63
2023-04-28T20:18:36.248Z,13.64
2023-04-28T20:21:06.600Z,13.65
2023-04-28T20:23:38.078Z,13.54
2023-04-28T20:26:15.562Z,13.43
2023-04-28T20:28:46.500Z,13.50
2023-04-28T20:31:16.555Z,13.52
2023-04-28T20:33:43.465Z,13.46
2023-04-28T20:36:11.172Z,13.45
2023-04-28T20:38:40.090Z,13.40
2023-04-28T20:41:10.602Z,13.36
2023-04-28T20:43:44.730Z,13.32
2023-04-28T20:46:13.798Z,13.41
2023-04-28T20:48:42.406Z,13.32
2023-04-28T20:51:10.884Z,13.35
2023-04-28T20:53:41.011Z,13.26
2023-04-28T20:56:11.889Z,13.26
2023-04-28T20:58:42.411Z,13.31
2023-04-28T21:01:10.786Z,13.30
2023-04-28T21:03:38.265Z,13.20
2023-04-28T21:06:09.035Z,13.28
2023-04-28T21:08:40.996Z,13.25
2023-04-28T21:11:16.037Z,13.23
2023-04-28T21:13:43.887Z,13.36
2023-04-28T21:16:20.975Z,13.29
2023-04-28T21:18:49.424Z,13.23
2023-04-28T21:21:16.952Z,13.29
2023-04-28T21:23:44.457Z,13.26
2023-04-28T21:26:15.751Z,13.30
2023-04-28T21:28:45.522Z,13.26
2023-04-28T21:31:14.222Z,13.33
2023-04-28T21:33:46.075Z,13.38
2023-04-28T21:36:19.530Z,13.31
2023-04-28T21:38:46.551Z,13.36
2023-04-28T21:41:15.986Z,13.38
2023-04-28T21:43:43.112Z,13.32
2023-04-28T21:46:12.675Z,13.35
2023-04-28T21:48:43.196Z,13.41
2023-04-28T21:51:14.566Z,13.32
2023-04-28T21:53:41.692Z,13.27
2023-04-28T21:56:08.554Z,13.33
2023-04-28T21:58:35.891Z,13.31
2023-04-28T22:01:05.233Z,13.34
2023-04-28T22:03:35.240Z,13.31
2023-04-28T22:06:03.301Z,13.30
2023-04-28T22:08:31.737Z,13.28
2023-04-28T22:10:58.787Z,13.33
2023-04-28T22:13:25.556Z,13.25
2023-04-28T22:15:54.161Z,13.28
2023-04-28T22:18:20.931Z,13.20
2023-04-28T22:20:47.802Z,13.19
2023-04-28T22:23:14.881Z,13.16
2023-04-28T22:25:41.925Z,13.17
2023-04-28T22:28:09.594Z,13.19
2023-04-28T22:30:36.835Z,13.14
2023-04-28T22:33:03.960Z,13.10
2023-04-28T22:35:30.937Z,13.02
2023-04-28T22:37:57.782Z,12.99
2023-04-28T22:40:24.581Z,12.93
2023-04-28T22:42:54.337Z,13.00
2023-04-28T22:45:22.458Z,12.94
2023-04-28T22:47:56.810Z,12.96
2023-04-28T22:50:25.259Z,13.05
2023-04-28T22:52:52.269Z,13.17
2023-04-28T22:55:23.441Z,13.11
2023-04-28T22:57:51.433Z,13.11
2023-04-28T23:00:18.823Z,13.15
2023-04-28T23:02:46.048Z,13.01
2023-04-28T23:05:18.061Z,12.98
2023-04-28T23:07:45.624Z,12.99
2023-04-28T23:10:14.784Z,13.07
2023-04-28T23:12:41.809Z,13.11
2023-04-28T23:15:09.029Z,13.10
2023-04-28T23:17:39.231Z,13.10
2023-04-28T23:20:06.689Z,12.97
2023-04-28T23:22:34.110Z,12.98
2023-04-28T23:25:01.423Z,12.94
2023-04-28T23:27:31.649Z,12.95
2023-04-28T23:29:58.810Z,13.07
2023-04-28T23:32:27.662Z,12.89
2023-04-28T23:34:54.807Z,12.82
2023-04-28T23:37:21.606Z,12.91
2023-04-28T23:39:48.789Z,12.85
2023-04-28T23:42:16.631Z,12.78
2023-04-28T23:44:43.939Z,12.86
2023-04-28T23:47:12.414Z,12.77
2023-04-28T23:49:42.318Z,12.78
2023-04-28T23:52:10.021Z,12.79
2023-04-28T23:54:41.474Z,12.80
2023-04-28T23:57:09.324Z,12.85
2023-04-28T23:59:36.206Z,12.73
